sensor_id;sensor_type;location;lat;lon;timestamp;temperature;humidity
67157;SHT31;54086;50.126;8.710;2023-04-24T00:02:22;12.46;83.60
67157;SHT31;54086;50.126;8.710;2023-04-24T00:04:49;12.50;83.64
67157;SHT31;54086;50.126;8.710;2023-04-24T00:07:15;12.47;83.71
67157;SHT31;54086;50.126;8.710;2023-04-24T00:09:42;12.40;83.88
67157;SHT31;54086;50.126;8.710;2023-04-24T00:12:08;12.38;83.88
67157;SHT31;54086;50.126;8.710;2023-04-24T00:14:34;12.38;84.00
67157;SHT31;54086;50.126;8.710;2023-04-24T00:17:00;12.41;84.11
67157;SHT31;54086;50.126;8.710;2023-04-24T00:19:27;12.37;84.47
67157;SHT31;54086;50.126;8.710;2023-04-24T00:21:53;12.33;84.85
67157;SHT31;54086;50.126;8.710;2023-04-24T00:24:19;12.34;85.18
67157;SHT31;54086;50.126;8.710;2023-04-24T00:26:45;12.27;85.38
67157;SHT31;54086;50.126;8.710;2023-04-24T00:29:10;12.26;85.66
67157;SHT31;54086;50.126;8.710;2023-04-24T00:31:35;12.26;85.71
67157;SHT31;54086;50.126;8.710;2023-04-24T00:34:01;12.33;85.74
67157;SHT31;54086;50.126;8.710;2023-04-24T00:36:27;12.27;85.69
67157;SHT31;54086;50.126;8.710;2023-04-24T00:38:53;12.26;85.54
67157;SHT31;54086;50.126;8.710;2023-04-24T00:41:19;12.27;85.50
67157;SHT31;54086;50.126;8.710;2023-04-24T00:43:44;12.26;85.57
67157;SHT31;54086;50.126;8.710;2023-04-24T00:46:11;12.23;85.25
67157;SHT31;54086;50.126;8.710;2023-04-24T00:48:41;12.27;85.12
67157;SHT31;54086;50.126;8.710;2023-04-24T00:51:07;12.30;84.97
67157;SHT31;54086;50.126;8.710;2023-04-24T00:53:33;12.26;84.97
67157;SHT31;54086;50.126;8.710;2023-04-24T00:55:59;12.22;84.77
67157;SHT31;54086;50.126;8.710;2023-04-24T00:58:25;12.22;84.54
67157;SHT31;54086;50.126;8.710;2023-04-24T01:00:52;12.23;84.39
67157;SHT31;54086;50.126;8.710;2023-04-24T01:03:20;12.23;84.45
67157;SHT31;54086;50.126;8.710;2023-04-24T01:05:47;12.25;84.40
67157;SHT31;54086;50.126;8.710;2023-04-24T01:08:13;12.23;84.11
67157;SHT31;54086;50.126;8.710;2023-04-24T01:10:40;12.27;83.83
67157;SHT31;54086;50.126;8.710;2023-04-24T01:13:08;12.27;83.91
67157;SHT31;54086;50.126;8.710;2023-04-24T01:15:34;12.25;83.95
67157;SHT31;54086;50.126;8.710;2023-04-24T01:17:59;12.27;83.96
67157;SHT31;54086;50.126;8.710;2023-04-24T01:20:25;12.25;83.99
67157;SHT31;54086;50.126;8.710;2023-04-24T01:22:51;12.27;83.86
67157;SHT31;54086;50.126;8.710;2023-04-24T01:25:25;12.19;83.89
67157;SHT31;54086;50.126;8.710;2023-04-24T01:27:52;12.13;84.11
67157;SHT31;54086;50.126;8.710;2023-04-24T01:30:17;12.15;84.08
67157;SHT31;54086;50.126;8.710;2023-04-24T01:32:44;12.16;84.18
67157;SHT31;54086;50.126;8.710;2023-04-24T01:35:10;12.10;84.32
67157;SHT31;54086;50.126;8.710;2023-04-24T01:37:36;12.12;84.39
67157;SHT31;54086;50.126;8.710;2023-04-24T01:40:04;12.10;84.37
67157;SHT31;54086;50.126;8.710;2023-04-24T01:42:30;12.15;84.46
67157;SHT31;54086;50.126;8.710;2023-04-24T01:44:56;12.06;84.71
67157;SHT31;54086;50.126;8.710;2023-04-24T01:47:23;12.05;84.78
67157;SHT31;54086;50.126;8.710;2023-04-24T01:49:50;12.02;84.85
67157;SHT31;54086;50.126;8.710;2023-04-24T01:52:15;12.05;85.05
67157;SHT31;54086;50.126;8.710;2023-04-24T01:54:43;12.09;84.95
67157;SHT31;54086;50.126;8.710;2023-04-24T01:57:08;12.10;84.83
67157;SHT31;54086;50.126;8.710;2023-04-24T01:59:34;12.10;84.89
67157;SHT31;54086;50.126;8.710;2023-04-24T02:02:02;12.13;84.83
67157;SHT31;54086;50.126;8.710;2023-04-24T02:04:27;12.08;84.91
67157;SHT31;54086;50.126;8.710;2023-04-24T02:06:53;12.10;84.70
67157;SHT31;54086;50.126;8.710;2023-04-24T02:09:19;12.09;84.66
67157;SHT31;54086;50.126;8.710;2023-04-24T02:11:45;12.06;84.62
67157;SHT31;54086;50.126;8.710;2023-04-24T02:14:10;12.06;84.60
67157;SHT31;54086;50.126;8.710;2023-04-24T02:16:35;12.09;84.38
67157;SHT31;54086;50.126;8.710;2023-04-24T02:19:01;12.05;84.66
67157;SHT31;54086;50.126;8.710;2023-04-24T02:21:27;12.08;84.27
67157;SHT31;54086;50.126;8.710;2023-04-24T02:23:53;12.10;84.32
67157;SHT31;54086;50.126;8.710;2023-04-24T02:26:18;12.05;84.38
67157;SHT31;54086;50.126;8.710;2023-04-24T02:28:44;12.02;84.59
67157;SHT31;54086;50.126;8.710;2023-04-24T02:31:09;12.00;84.64
67157;SHT31;54086;50.126;8.710;2023-04-24T02:33:35;11.98;84.74
67157;SHT31;54086;50.126;8.710;2023-04-24T02:36:01;11.93;85.00
67157;SHT31;54086;50.126;8.710;2023-04-24T02:38:28;11.89;85.19
67157;SHT31;54086;50.126;8.710;2023-04-24T02:40:53;11.81;85.52
67157;SHT31;54086;50.126;8.710;2023-04-24T02:43:19;11.78;85.64
67157;SHT31;54086;50.126;8.710;2023-04-24T02:45:44;11.79;85.78
67157;SHT31;54086;50.126;8.710;2023-04-24T02:48:09;11.77;85.79
67157;SHT31;54086;50.126;8.710;2023-04-24T02:50:35;11.78;85.90
67157;SHT31;54086;50.126;8.710;2023-04-24T02:53:00;11.72;85.84
67157;SHT31;54086;50.126;8.710;2023-04-24T02:55:26;11.65;86.22
67157;SHT31;54086;50.126;8.710;2023-04-24T02:57:51;11.59;86.22
67157;SHT31;54086;50.126;8.710;2023-04-24T03:00:16;11.59;86.52
67157;SHT31;54086;50.126;8.710;2023-04-24T03:02:42;11.61;86.46
67157;SHT31;54086;50.126;8.710;2023-04-24T03:05:07;11.64;86.31
67157;SHT31;54086;50.126;8.710;2023-04-24T03:07:34;11.67;86.36
67157;SHT31;54086;50.126;8.710;2023-04-24T03:09:59;11.77;86.21
67157;SHT31;54086;50.126;8.710;2023-04-24T03:12:25;11.81;85.88
67157;SHT31;54086;50.126;8.710;2023-04-24T03:14:50;11.77;85.94
67157;SHT31;54086;50.126;8.710;2023-04-24T03:17:16;11.69;86.00
67157;SHT31;54086;50.126;8.710;2023-04-24T03:19:41;11.67;86.11
67157;SHT31;54086;50.126;8.710;2023-04-24T03:22:07;11.59;86.31
67157;SHT31;54086;50.126;8.710;2023-04-24T03:24:34;11.64;86.40
67157;SHT31;54086;50.126;8.710;2023-04-24T03:26:59;11.57;86.37
67157;SHT31;54086;50.126;8.710;2023-04-24T03:29:25;11.61;86.32
67157;SHT31;54086;50.126;8.710;2023-04-24T03:31:50;11.59;86.39
67157;SHT31;54086;50.126;8.710;2023-04-24T03:34:16;11.59;86.45
67157;SHT31;54086;50.126;8.710;2023-04-24T03:36:41;11.62;86.56
67157;SHT31;54086;50.126;8.710;2023-04-24T03:39:07;11.58;86.56
67157;SHT31;54086;50.126;8.710;2023-04-24T03:41:32;11.59;86.41
67157;SHT31;54086;50.126;8.710;2023-04-24T03:43:58;11.65;86.39
67157;SHT31;54086;50.126;8.710;2023-04-24T03:46:23;11.64;86.40
67157;SHT31;54086;50.126;8.710;2023-04-24T03:48:49;11.65;86.52
67157;SHT31;54086;50.126;8.710;2023-04-24T03:51:14;11.68;86.45
67157;SHT31;54086;50.126;8.710;2023-04-24T03:53:40;11.65;86.61
67157;SHT31;54086;50.126;8.710;2023-04-24T03:56:05;11.59;86.73
67157;SHT31;54086;50.126;8.710;2023-04-24T03:58:31;11.59;86.85
67157;SHT31;54086;50.126;8.710;2023-04-24T04:00:56;11.51;87.17
67157;SHT31;54086;50.126;8.710;2023-04-24T04:03:23;11.47;87.28
67157;SHT31;54086;50.126;8.710;2023-04-24T04:05:49;11.54;87.13
67157;SHT31;54086;50.126;8.710;2023-04-24T04:08:14;11.51;87.22
67157;SHT31;54086;50.126;8.710;2023-04-24T04:10:40;11.55;87.39
67157;SHT31;54086;50.126;8.710;2023-04-24T04:13:05;11.55;87.53
67157;SHT31;54086;50.126;8.710;2023-04-24T04:15:31;11.55;87.47
67157;SHT31;54086;50.126;8.710;2023-04-24T04:17:58;11.57;87.35
67157;SHT31;54086;50.126;8.710;2023-04-24T04:20:24;11.45;87.59
67157;SHT31;54086;50.126;8.710;2023-04-24T04:22:49;11.38;87.95
67157;SHT31;54086;50.126;8.710;2023-04-24T04:25:16;11.41;87.90
67157;SHT31;54086;50.126;8.710;2023-04-24T04:27:46;11.35;86.63
67157;SHT31;54086;50.126;8.710;2023-04-24T04:30:13;11.35;87.15
67157;SHT31;54086;50.126;8.710;2023-04-24T04:32:39;11.37;87.72
67157;SHT31;54086;50.126;8.710;2023-04-24T04:35:05;11.32;87.57
67157;SHT31;54086;50.126;8.710;2023-04-24T04:37:32;11.45;86.52
67157;SHT31;54086;50.126;8.710;2023-04-24T04:40:00;11.45;85.97
67157;SHT31;54086;50.126;8.710;2023-04-24T04:42:27;11.44;85.94
67157;SHT31;54086;50.126;8.710;2023-04-24T04:44:53;11.48;82.61
67157;SHT31;54086;50.126;8.710;2023-04-24T04:47:21;11.48;82.39
67157;SHT31;54086;50.126;8.710;2023-04-24T04:49:50;11.44;81.59
67157;SHT31;54086;50.126;8.710;2023-04-24T04:52:17;11.44;82.00
67157;SHT31;54086;50.126;8.710;2023-04-24T04:54:44;11.51;83.03
67157;SHT31;54086;50.126;8.710;2023-04-24T04:57:10;11.48;81.56
67157;SHT31;54086;50.126;8.710;2023-04-24T04:59:35;11.44;80.98
67157;SHT31;54086;50.126;8.710;2023-04-24T05:02:01;11.39;81.59
67157;SHT31;54086;50.126;8.710;2023-04-24T05:04:26;11.51;81.53
67157;SHT31;54086;50.126;8.710;2023-04-24T05:06:52;11.55;81.82
67157;SHT31;54086;50.126;8.710;2023-04-24T05:09:18;11.54;82.42
67157;SHT31;54086;50.126;8.710;2023-04-24T05:11:43;11.51;82.26
67157;SHT31;54086;50.126;8.710;2023-04-24T05:14:09;11.47;81.82
67157;SHT31;54086;50.126;8.710;2023-04-24T05:16:35;11.44;80.70
67157;SHT31;54086;50.126;8.710;2023-04-24T05:19:02;11.38;79.96
67157;SHT31;54086;50.126;8.710;2023-04-24T05:21:27;11.28;79.73
67157;SHT31;54086;50.126;8.710;2023-04-24T05:23:54;11.34;79.67
67157;SHT31;54086;50.126;8.710;2023-04-24T05:26:19;11.41;79.81
67157;SHT31;54086;50.126;8.710;2023-04-24T05:28:45;11.41;79.73
67157;SHT31;54086;50.126;8.710;2023-04-24T05:31:10;11.37;78.47
67157;SHT31;54086;50.126;8.710;2023-04-24T05:33:35;11.27;78.43
67157;SHT31;54086;50.126;8.710;2023-04-24T05:36:03;11.34;78.44
67157;SHT31;54086;50.126;8.710;2023-04-24T05:38:29;11.35;77.97
67157;SHT31;54086;50.126;8.710;2023-04-24T05:40:54;11.39;77.36
67157;SHT31;54086;50.126;8.710;2023-04-24T05:43:21;11.35;76.10
67157;SHT31;54086;50.126;8.710;2023-04-24T05:45:46;11.31;73.89
67157;SHT31;54086;50.126;8.710;2023-04-24T05:48:12;11.30;71.80
67157;SHT31;54086;50.126;8.710;2023-04-24T05:50:37;11.30;70.95
67157;SHT31;54086;50.126;8.710;2023-04-24T05:53:03;11.24;69.36
67157;SHT31;54086;50.126;8.710;2023-04-24T05:55:30;11.34;69.27
67157;SHT31;54086;50.126;8.710;2023-04-24T05:57:56;11.55;67.65
67157;SHT31;54086;50.126;8.710;2023-04-24T06:00:21;11.67;67.85
67157;SHT31;54086;50.126;8.710;2023-04-24T06:02:47;11.72;67.85
67157;SHT31;54086;50.126;8.710;2023-04-24T06:05:13;11.81;68.08
67157;SHT31;54086;50.126;8.710;2023-04-24T06:07:39;11.85;68.51
67157;SHT31;54086;50.126;8.710;2023-04-24T06:10:06;11.86;68.68
67157;SHT31;54086;50.126;8.710;2023-04-24T06:12:31;11.92;68.50
67157;SHT31;54086;50.126;8.710;2023-04-24T06:14:56;11.78;69.02
67157;SHT31;54086;50.126;8.710;2023-04-24T06:17:22;11.79;69.61
67157;SHT31;54086;50.126;8.710;2023-04-24T06:19:47;11.86;70.19
67157;SHT31;54086;50.126;8.710;2023-04-24T06:22:13;11.83;70.49
67157;SHT31;54086;50.126;8.710;2023-04-24T06:24:39;11.82;70.96
67157;SHT31;54086;50.126;8.710;2023-04-24T06:27:05;11.64;71.17
67157;SHT31;54086;50.126;8.710;2023-04-24T06:29:31;11.35;71.72
67157;SHT31;54086;50.126;8.710;2023-04-24T06:31:56;11.31;72.12
67157;SHT31;54086;50.126;8.710;2023-04-24T06:34:21;11.37;71.52
67157;SHT31;54086;50.126;8.710;2023-04-24T06:36:47;11.54;71.52
67157;SHT31;54086;50.126;8.710;2023-04-24T06:39:12;11.71;70.72
67157;SHT31;54086;50.126;8.710;2023-04-24T06:41:38;11.92;70.10
67157;SHT31;54086;50.126;8.710;2023-04-24T06:44:05;11.71;70.28
67157;SHT31;54086;50.126;8.710;2023-04-24T06:46:30;11.69;70.86
67157;SHT31;54086;50.126;8.710;2023-04-24T06:48:55;11.77;70.48
67157;SHT31;54086;50.126;8.710;2023-04-24T06:51:25;11.95;70.67
67157;SHT31;54086;50.126;8.710;2023-04-24T06:53:54;11.90;70.98
67157;SHT31;54086;50.126;8.710;2023-04-24T06:58:54;11.50;71.70
67157;SHT31;54086;50.126;8.710;2023-04-24T07:01:19;11.35;72.52
67157;SHT31;54086;50.126;8.710;2023-04-24T07:03:44;11.52;72.49
67157;SHT31;54086;50.126;8.710;2023-04-24T07:06:10;11.72;71.98
67157;SHT31;54086;50.126;8.710;2023-04-24T07:08:37;11.37;72.20
67157;SHT31;54086;50.126;8.710;2023-04-24T07:11:03;11.61;72.06
67157;SHT31;54086;50.126;8.710;2023-04-24T07:13:30;11.47;72.07
67157;SHT31;54086;50.126;8.710;2023-04-24T07:15:55;11.69;72.14
67157;SHT31;54086;50.126;8.710;2023-04-24T07:18:21;11.52;72.43
67157;SHT31;54086;50.126;8.710;2023-04-24T07:20:47;11.48;73.14
67157;SHT31;54086;50.126;8.710;2023-04-24T07:23:13;11.65;72.57
67157;SHT31;54086;50.126;8.710;2023-04-24T07:25:39;11.79;72.28
67157;SHT31;54086;50.126;8.710;2023-04-24T07:28:04;11.62;72.85
67157;SHT31;54086;50.126;8.710;2023-04-24T07:30:31;11.78;72.15
67157;SHT31;54086;50.126;8.710;2023-04-24T07:32:58;11.78;72.19
67157;SHT31;54086;50.126;8.710;2023-04-24T07:35:24;11.86;72.12
67157;SHT31;54086;50.126;8.710;2023-04-24T07:37:51;11.95;71.87
67157;SHT31;54086;50.126;8.710;2023-04-24T07:40:17;12.05;70.94
67157;SHT31;54086;50.126;8.710;2023-04-24T07:42:42;12.19;70.49
67157;SHT31;54086;50.126;8.710;2023-04-24T07:45:09;11.96;70.91
67157;SHT31;54086;50.126;8.710;2023-04-24T07:47:34;12.10;70.57
67157;SHT31;54086;50.126;8.710;2023-04-24T07:50:00;12.09;70.60
67157;SHT31;54086;50.126;8.710;2023-04-24T07:52:27;12.08;70.30
67157;SHT31;54086;50.126;8.710;2023-04-24T07:54:54;12.32;69.56
67157;SHT31;54086;50.126;8.710;2023-04-24T07:57:24;12.41;68.92
67157;SHT31;54086;50.126;8.710;2023-04-24T07:59:49;12.23;69.38
67157;SHT31;54086;50.126;8.710;2023-04-24T08:02:16;12.33;69.56
67157;SHT31;54086;50.126;8.710;2023-04-24T08:04:42;12.47;69.33
67157;SHT31;54086;50.126;8.710;2023-04-24T08:07:07;12.25;69.27
67157;SHT31;54086;50.126;8.710;2023-04-24T08:09:40;12.02;69.98
67157;SHT31;54086;50.126;8.710;2023-04-24T08:12:06;12.47;69.45
67157;SHT31;54086;50.126;8.710;2023-04-24T08:14:31;12.43;69.16
67157;SHT31;54086;50.126;8.710;2023-04-24T08:16:56;12.83;68.89
67157;SHT31;54086;50.126;8.710;2023-04-24T08:19:22;12.87;68.30
67157;SHT31;54086;50.126;8.710;2023-04-24T08:21:48;12.54;68.98
67157;SHT31;54086;50.126;8.710;2023-04-24T08:24:14;12.91;67.55
67157;SHT31;54086;50.126;8.710;2023-04-24T08:26:39;13.39;66.33
67157;SHT31;54086;50.126;8.710;2023-04-24T08:29:05;13.83;65.10
67157;SHT31;54086;50.126;8.710;2023-04-24T08:31:31;13.94;63.56
67157;SHT31;54086;50.126;8.710;2023-04-24T08:33:57;14.39;62.57
67157;SHT31;54086;50.126;8.710;2023-04-24T08:36:23;14.58;62.01
67157;SHT31;54086;50.126;8.710;2023-04-24T08:38:48;15.31;60.24
67157;SHT31;54086;50.126;8.710;2023-04-24T08:41:14;14.65;61.23
67157;SHT31;54086;50.126;8.710;2023-04-24T08:43:41;14.45;61.41
67157;SHT31;54086;50.126;8.710;2023-04-24T08:46:07;14.44;61.37
67157;SHT31;54086;50.126;8.710;2023-04-24T08:48:35;14.22;61.33
67157;SHT31;54086;50.126;8.710;2023-04-24T08:51:02;13.81;62.76
67157;SHT31;54086;50.126;8.710;2023-04-24T08:53:32;13.90;63.01
67157;SHT31;54086;50.126;8.710;2023-04-24T08:56:01;13.39;64.08
67157;SHT31;54086;50.126;8.710;2023-04-24T08:58:27;12.87;65.49
67157;SHT31;54086;50.126;8.710;2023-04-24T09:00:57;13.15;65.35
67157;SHT31;54086;50.126;8.710;2023-04-24T09:03:23;12.89;65.30
67157;SHT31;54086;50.126;8.710;2023-04-24T09:05:49;13.09;65.64
67157;SHT31;54086;50.126;8.710;2023-04-24T09:08:18;12.99;66.10
67157;SHT31;54086;50.126;8.710;2023-04-24T09:10:44;13.04;66.39
67157;SHT31;54086;50.126;8.710;2023-04-24T09:13:10;12.89;66.88
67157;SHT31;54086;50.126;8.710;2023-04-24T09:15:38;12.69;67.59
67157;SHT31;54086;50.126;8.710;2023-04-24T09:18:04;12.30;68.89
67157;SHT31;54086;50.126;8.710;2023-04-24T09:20:30;12.15;69.23
67157;SHT31;54086;50.126;8.710;2023-04-24T09:22:57;12.19;69.50
67157;SHT31;54086;50.126;8.710;2023-04-24T09:25:34;12.23;69.88
67157;SHT31;54086;50.126;8.710;2023-04-24T09:28:02;12.56;69.48
67157;SHT31;54086;50.126;8.710;2023-04-24T09:30:28;12.51;69.35
67157;SHT31;54086;50.126;8.710;2023-04-24T09:33:14;12.60;68.92
67157;SHT31;54086;50.126;8.710;2023-04-24T09:35:50;12.58;68.97
67157;SHT31;54086;50.126;8.710;2023-04-24T09:38:16;12.60;68.80
67157;SHT31;54086;50.126;8.710;2023-04-24T09:40:43;12.58;68.57
67157;SHT31;54086;50.126;8.710;2023-04-24T09:43:11;12.60;68.63
67157;SHT31;54086;50.126;8.710;2023-04-24T09:45:40;12.15;69.56
67157;SHT31;54086;50.126;8.710;2023-04-24T09:48:09;11.89;70.35
67157;SHT31;54086;50.126;8.710;2023-04-24T09:50:35;11.98;70.60
67157;SHT31;54086;50.126;8.710;2023-04-24T09:53:03;12.09;70.30
67157;SHT31;54086;50.126;8.710;2023-04-24T09:55:29;12.17;70.21
67157;SHT31;54086;50.126;8.710;2023-04-24T09:58:01;12.17;70.14
67157;SHT31;54086;50.126;8.710;2023-04-24T10:00:29;11.88;70.74
67157;SHT31;54086;50.126;8.710;2023-04-24T10:03:02;11.93;70.77
67157;SHT31;54086;50.126;8.710;2023-04-24T10:05:33;11.95;70.69
67157;SHT31;54086;50.126;8.710;2023-04-24T10:10:31;12.06;70.66
67157;SHT31;54086;50.126;8.710;2023-04-24T10:12:56;12.16;70.35
67157;SHT31;54086;50.126;8.710;2023-04-24T10:15:22;12.02;70.91
67157;SHT31;54086;50.126;8.710;2023-04-24T10:17:49;12.17;70.86
67157;SHT31;54086;50.126;8.710;2023-04-24T10:20:23;12.29;70.37
67157;SHT31;54086;50.126;8.710;2023-04-24T10:22:51;12.30;70.57
67157;SHT31;54086;50.126;8.710;2023-04-24T10:25:21;12.30;71.09
67157;SHT31;54086;50.126;8.710;2023-04-24T10:27:50;12.29;72.05
67157;SHT31;54086;50.126;8.710;2023-04-24T10:30:16;12.12;72.74
67157;SHT31;54086;50.126;8.710;2023-04-24T10:32:42;12.13;73.48
67157;SHT31;54086;50.126;8.710;2023-04-24T10:35:08;11.88;74.74
67157;SHT31;54086;50.126;8.710;2023-04-24T10:37:40;11.75;75.47
67157;SHT31;54086;50.126;8.710;2023-04-24T10:40:09;11.86;76.79
67157;SHT31;54086;50.126;8.710;2023-04-24T10:42:39;11.86;77.36
67157;SHT31;54086;50.126;8.710;2023-04-24T10:45:06;12.02;78.50
67157;SHT31;54086;50.126;8.710;2023-04-24T10:48:02;11.89;77.99
67157;SHT31;54086;50.126;8.710;2023-04-24T10:50:29;11.88;78.58
67157;SHT31;54086;50.126;8.710;2023-04-24T10:53:07;11.81;78.02
67157;SHT31;54086;50.126;8.710;2023-04-24T10:55:49;11.69;78.12
67157;SHT31;54086;50.126;8.710;2023-04-24T10:58:15;11.78;78.34
67157;SHT31;54086;50.126;8.710;2023-04-24T11:00:56;12.03;78.62
67157;SHT31;54086;50.126;8.710;2023-04-24T11:03:28;12.03;79.08
67157;SHT31;54086;50.126;8.710;2023-04-24T11:11:06;12.98;77.16
67157;SHT31;54086;50.126;8.710;2023-04-24T11:16:21;13.63;73.82
67157;SHT31;54086;50.126;8.710;2023-04-24T11:18:52;13.15;73.52
67157;SHT31;54086;50.126;8.710;2023-04-24T11:21:22;13.40;74.59
67157;SHT31;54086;50.126;8.710;2023-04-24T11:23:47;13.56;73.08
67157;SHT31;54086;50.126;8.710;2023-04-24T11:26:23;13.98;72.49
67157;SHT31;54086;50.126;8.710;2023-04-24T11:29:07;13.98;70.64
67157;SHT31;54086;50.126;8.710;2023-04-24T11:31:40;14.35;69.57
67157;SHT31;54086;50.126;8.710;2023-04-24T11:34:13;14.07;69.33
67157;SHT31;54086;50.126;8.710;2023-04-24T11:36:42;14.15;69.59
67157;SHT31;54086;50.126;8.710;2023-04-24T11:39:08;14.69;68.28
67157;SHT31;54086;50.126;8.710;2023-04-24T11:41:34;14.96;67.43
67157;SHT31;54086;50.126;8.710;2023-04-24T11:44:00;14.85;67.28
67157;SHT31;54086;50.126;8.710;2023-04-24T11:46:28;16.42;64.22
67157;SHT31;54086;50.126;8.710;2023-04-24T11:48:54;16.43;63.29
67157;SHT31;54086;50.126;8.710;2023-04-24T11:51:28;15.84;64.45
67157;SHT31;54086;50.126;8.710;2023-04-24T11:53:55;15.45;63.55
67157;SHT31;54086;50.126;8.710;2023-04-24T11:56:24;15.54;63.49
67157;SHT31;54086;50.126;8.710;2023-04-24T11:58:52;15.06;63.90
67157;SHT31;54086;50.126;8.710;2023-04-24T12:01:18;15.30;63.22
67157;SHT31;54086;50.126;8.710;2023-04-24T12:03:48;14.90;64.28
67157;SHT31;54086;50.126;8.710;2023-04-24T12:06:15;14.90;64.37
67157;SHT31;54086;50.126;8.710;2023-04-24T12:08:40;14.54;63.93
67157;SHT31;54086;50.126;8.710;2023-04-24T12:11:07;14.27;66.19
67157;SHT31;54086;50.126;8.710;2023-04-24T12:13:34;13.96;71.57
67157;SHT31;54086;50.126;8.710;2023-04-24T12:16:02;13.46;73.08
67157;SHT31;54086;50.126;8.710;2023-04-24T12:18:30;13.45;76.11
67157;SHT31;54086;50.126;8.710;2023-04-24T12:21:20;13.50;73.07
67157;SHT31;54086;50.126;8.710;2023-04-24T12:23:46;12.78;74.63
67157;SHT31;54086;50.126;8.710;2023-04-24T12:26:16;12.40;79.12
67157;SHT31;54086;50.126;8.710;2023-04-24T12:28:46;12.10;79.71
67157;SHT31;54086;50.126;8.710;2023-04-24T12:31:12;12.43;81.19
67157;SHT31;54086;50.126;8.710;2023-04-24T12:33:37;12.80;80.00
67157;SHT31;54086;50.126;8.710;2023-04-24T12:36:04;13.69;78.35
67157;SHT31;54086;50.126;8.710;2023-04-24T12:38:31;13.71;75.83
67157;SHT31;54086;50.126;8.710;2023-04-24T12:41:03;13.18;75.26
67157;SHT31;54086;50.126;8.710;2023-04-24T12:43:31;13.25;73.00
67157;SHT31;54086;50.126;8.710;2023-04-24T12:45:57;13.36;73.98
67157;SHT31;54086;50.126;8.710;2023-04-24T12:48:25;12.95;75.55
67157;SHT31;54086;50.126;8.710;2023-04-24T12:50:50;13.34;74.72
67157;SHT31;54086;50.126;8.710;2023-04-24T12:53:16;13.32;73.56
67157;SHT31;54086;50.126;8.710;2023-04-24T12:55:41;13.02;75.27
67157;SHT31;54086;50.126;8.710;2023-04-24T12:58:07;13.29;73.57
67157;SHT31;54086;50.126;8.710;2023-04-24T13:00:33;13.35;73.65
67157;SHT31;54086;50.126;8.710;2023-04-24T13:02:58;13.36;74.20
67157;SHT31;54086;50.126;8.710;2023-04-24T13:05:24;13.29;73.30
67157;SHT31;54086;50.126;8.710;2023-04-24T13:07:50;13.71;72.17
67157;SHT31;54086;50.126;8.710;2023-04-24T13:10:16;15.85;67.38
67157;SHT31;54086;50.126;8.710;2023-04-24T13:12:41;15.66;68.32
67157;SHT31;54086;50.126;8.710;2023-04-24T13:15:16;16.43;65.71
67157;SHT31;54086;50.126;8.710;2023-04-24T13:17:43;16.67;62.53
67157;SHT31;54086;50.126;8.710;2023-04-24T13:20:09;16.50;63.10
67157;SHT31;54086;50.126;8.710;2023-04-24T13:22:35;17.10;62.44
67157;SHT31;54086;50.126;8.710;2023-04-24T13:25:01;16.19;64.46
67157;SHT31;54086;50.126;8.710;2023-04-24T13:27:26;16.36;65.05
67157;SHT31;54086;50.126;8.710;2023-04-24T13:29:51;15.58;65.14
67157;SHT31;54086;50.126;8.710;2023-04-24T13:32:17;16.06;65.04
67157;SHT31;54086;50.126;8.710;2023-04-24T13:34:42;15.93;63.08
67157;SHT31;54086;50.126;8.710;2023-04-24T13:37:08;15.84;64.28
67157;SHT31;54086;50.126;8.710;2023-04-24T13:39:33;15.51;64.51
67157;SHT31;54086;50.126;8.710;2023-04-24T13:41:59;14.52;63.36
67157;SHT31;54086;50.126;8.710;2023-04-24T13:44:25;14.14;65.64
67157;SHT31;54086;50.126;8.710;2023-04-24T13:46:53;13.69;66.14
67157;SHT31;54086;50.126;8.710;2023-04-24T13:49:19;13.40;67.34
67157;SHT31;54086;50.126;8.710;2023-04-24T13:51:45;13.70;68.20
67157;SHT31;54086;50.126;8.710;2023-04-24T13:54:11;13.78;66.81
67157;SHT31;54086;50.126;8.710;2023-04-24T13:56:36;14.27;66.19
67157;SHT31;54086;50.126;8.710;2023-04-24T13:59:02;14.18;65.96
67157;SHT31;54086;50.126;8.710;2023-04-24T14:01:27;13.96;66.13
67157;SHT31;54086;50.126;8.710;2023-04-24T14:03:54;13.62;65.60
67157;SHT31;54086;50.126;8.710;2023-04-24T14:06:21;13.74;66.44
67157;SHT31;54086;50.126;8.710;2023-04-24T14:08:47;13.70;65.61
67157;SHT31;54086;50.126;8.710;2023-04-24T14:11:12;14.01;64.49
67157;SHT31;54086;50.126;8.710;2023-04-24T14:13:38;14.22;65.07
67157;SHT31;54086;50.126;8.710;2023-04-24T14:16:05;15.99;61.19
67157;SHT31;54086;50.126;8.710;2023-04-24T14:18:31;16.78;57.93
67157;SHT31;54086;50.126;8.710;2023-04-24T14:20:56;17.10;55.94
67157;SHT31;54086;50.126;8.710;2023-04-24T14:23:22;17.80;54.72
67157;SHT31;54086;50.126;8.710;2023-04-24T14:25:47;17.39;55.51
67157;SHT31;54086;50.126;8.710;2023-04-24T14:28:16;17.50;55.08
67157;SHT31;54086;50.126;8.710;2023-04-24T14:30:42;18.61;53.52
67157;SHT31;54086;50.126;8.710;2023-04-24T14:33:08;17.46;55.53
67157;SHT31;54086;50.126;8.710;2023-04-24T14:35:33;16.33;59.86
67157;SHT31;54086;50.126;8.710;2023-04-24T14:38:00;16.33;59.99
67157;SHT31;54086;50.126;8.710;2023-04-24T14:40:25;16.34;58.65
67157;SHT31;54086;50.126;8.710;2023-04-24T14:42:51;15.71;60.27
67157;SHT31;54086;50.126;8.710;2023-04-24T14:45:17;15.51;61.01
67157;SHT31;54086;50.126;8.710;2023-04-24T14:47:43;15.17;62.11
67157;SHT31;54086;50.126;8.710;2023-04-24T14:50:08;15.07;62.29
67157;SHT31;54086;50.126;8.710;2023-04-24T14:52:34;14.89;63.05
67157;SHT31;54086;50.126;8.710;2023-04-24T14:55:00;14.72;64.44
67157;SHT31;54086;50.126;8.710;2023-04-24T14:57:25;14.65;65.94
67157;SHT31;54086;50.126;8.710;2023-04-24T14:59:51;14.72;63.72
67157;SHT31;54086;50.126;8.710;2023-04-24T15:02:16;14.36;64.39
67157;SHT31;54086;50.126;8.710;2023-04-24T15:04:42;14.52;63.54
67157;SHT31;54086;50.126;8.710;2023-04-24T15:07:07;14.39;63.60
67157;SHT31;54086;50.126;8.710;2023-04-24T15:09:32;14.18;64.03
67157;SHT31;54086;50.126;8.710;2023-04-24T15:11:59;14.36;63.51
67157;SHT31;54086;50.126;8.710;2023-04-24T15:14:24;14.39;63.44
67157;SHT31;54086;50.126;8.710;2023-04-24T15:16:50;14.48;63.34
67157;SHT31;54086;50.126;8.710;2023-04-24T15:19:15;14.25;63.61
67157;SHT31;54086;50.126;8.710;2023-04-24T15:21:41;14.21;64.03
67157;SHT31;54086;50.126;8.710;2023-04-24T15:24:08;14.13;63.23
67157;SHT31;54086;50.126;8.710;2023-04-24T15:26:33;14.04;62.97
67157;SHT31;54086;50.126;8.710;2023-04-24T15:28:59;14.07;62.58
67157;SHT31;54086;50.126;8.710;2023-04-24T15:31:24;13.94;62.28
67157;SHT31;54086;50.126;8.710;2023-04-24T15:33:50;14.14;62.60
67157;SHT31;54086;50.126;8.710;2023-04-24T15:36:16;14.01;62.31
67157;SHT31;54086;50.126;8.710;2023-04-24T15:38:43;14.00;61.45
67157;SHT31;54086;50.126;8.710;2023-04-24T15:41:08;14.04;61.09